IPTRJ LIPB-LICJ
Flight info
| Callsign | IPTRJ |
|---|---|
| Flight time | 1h 33m |
| Altitude | 41000 |
| Route | VIC DCT BOA DCT TAQ DCT PNZ DCT LURON |
| Aircraft | HDJT/L-SABDGRWY/H |
Departure
| Time | 2026-04-26 13:07 |
|---|---|
| Airport | Bolzano Airport (LIPB) |
Arrival
| Time | 2026-04-26 14:41 |
|---|---|
| Airport | Falcone–Borsellino Airport (LICJ) |
| Time | Latitude | Longitude | Altitude | Speed | Heading |
|---|---|---|---|---|---|
| 2026-04-26 12:42 | 46.46430 | 11.32937 | 782 ft | 0 kts | 98° |
| 2026-04-26 13:00 | 46.46430 | 11.32940 | 782 ft | 1 kts | 100° |
| 2026-04-26 13:00 | 46.46422 | 11.32935 | 782 ft | 5 kts | 318° |
| 2026-04-26 13:00 | 46.46435 | 11.32890 | 782 ft | 7 kts | 278° |
| 2026-04-26 13:01 | 46.46399 | 11.32862 | 781 ft | 12 kts | 189° |
| 2026-04-26 13:01 | 46.46320 | 11.32841 | 782 ft | 11 kts | 191° |
| 2026-04-26 13:01 | 46.46247 | 11.32822 | 782 ft | 10 kts | 192° |
| 2026-04-26 13:01 | 46.46236 | 11.32813 | 782 ft | 0 kts | 247° |
| 2026-04-26 13:02 | 46.46238 | 11.32785 | 782 ft | 9 kts | 284° |
| 2026-04-26 13:02 | 46.46225 | 11.32691 | 782 ft | 8 kts | 192° |
| 2026-04-26 13:02 | 46.46138 | 11.32666 | 783 ft | 18 kts | 191° |
| 2026-04-26 13:03 | 46.45980 | 11.32626 | 782 ft | 28 kts | 190° |
| 2026-04-26 13:03 | 46.45756 | 11.32565 | 782 ft | 38 kts | 191° |
| 2026-04-26 13:03 | 46.45481 | 11.32492 | 781 ft | 40 kts | 190° |
| 2026-04-26 13:03 | 46.45236 | 11.32411 | 783 ft | 16 kts | 198° |
| 2026-04-26 13:04 | 46.45159 | 11.32423 | 782 ft | 7 kts | 109° |
| 2026-04-26 13:04 | 46.45200 | 11.32458 | 782 ft | 12 kts | 350° |
| 2026-04-26 13:04 | 46.45261 | 11.32440 | 783 ft | 0 kts | 10° |
| 2026-04-26 13:06 | 46.45285 | 11.32446 | 783 ft | 16 kts | 10° |
| 2026-04-26 13:07 | 46.45501 | 11.32501 | 781 ft | 79 kts | 10° |
| 2026-04-26 13:07 | 46.46291 | 11.32698 | 929 ft | 133 kts | 10° |
| 2026-04-26 13:07 | 46.47213 | 11.32945 | 1510 ft | 139 kts | 1° |
| 2026-04-26 13:07 | 46.48394 | 11.32042 | 2099 ft | 166 kts | 303° |
| 2026-04-26 13:08 | 46.48675 | 11.30364 | 2625 ft | 183 kts | 264° |
| 2026-04-26 13:08 | 46.48142 | 11.28624 | 3156 ft | 200 kts | 227° |
| 2026-04-26 13:08 | 46.47365 | 11.27807 | 3552 ft | 211 kts | 204° |
| 2026-04-26 13:08 | 46.45895 | 11.27494 | 4166 ft | 225 kts | 175° |
| 2026-04-26 13:09 | 46.44330 | 11.27924 | 4889 ft | 235 kts | 162° |
| 2026-04-26 13:09 | 46.42760 | 11.28764 | 5571 ft | 244 kts | 162° |
| 2026-04-26 13:09 | 46.41081 | 11.29230 | 6288 ft | 251 kts | 180° |
| 2026-04-26 13:09 | 46.38786 | 11.28442 | 7189 ft | 259 kts | 198° |
| 2026-04-26 13:10 | 46.37067 | 11.27596 | 7946 ft | 265 kts | 200° |
| 2026-04-26 13:10 | 46.35838 | 11.26994 | 8018 ft | 287 kts | 198° |
| 2026-04-26 13:10 | 46.33878 | 11.26148 | 8438 ft | 299 kts | 197° |
| 2026-04-26 13:10 | 46.31918 | 11.25291 | 9404 ft | 292 kts | 196° |
| 2026-04-26 13:11 | 46.29969 | 11.24485 | 10285 ft | 290 kts | 197° |
| 2026-04-26 13:11 | 46.28070 | 11.23554 | 11262 ft | 283 kts | 199° |
| 2026-04-26 13:11 | 46.26237 | 11.22654 | 12328 ft | 275 kts | 198° |
| 2026-04-26 13:11 | 46.23830 | 11.21683 | 13654 ft | 267 kts | 195° |
| 2026-04-26 13:12 | 46.22070 | 11.20920 | 14593 ft | 263 kts | 198° |
| 2026-04-26 13:12 | 46.20902 | 11.20340 | 15174 ft | 261 kts | 200° |
| 2026-04-26 13:12 | 46.19201 | 11.19467 | 16073 ft | 258 kts | 199° |
| 2026-04-26 13:12 | 46.17511 | 11.18756 | 16899 ft | 258 kts | 195° |
| 2026-04-26 13:13 | 46.15761 | 11.18069 | 17578 ft | 264 kts | 195° |
| 2026-04-26 13:13 | 46.13969 | 11.17345 | 18184 ft | 271 kts | 200° |
| 2026-04-26 13:13 | 46.12227 | 11.16410 | 19072 ft | 266 kts | 201° |
| 2026-04-26 13:13 | 46.10484 | 11.15478 | 19727 ft | 272 kts | 197° |
| 2026-04-26 13:14 | 46.08631 | 11.14859 | 20418 ft | 274 kts | 186° |
| 2026-04-26 13:14 | 46.06724 | 11.14919 | 21145 ft | 276 kts | 171° |
| 2026-04-26 13:14 | 46.04853 | 11.15660 | 21630 ft | 290 kts | 156° |
| 2026-04-26 13:14 | 46.03120 | 11.17319 | 22030 ft | 300 kts | 140° |
| 2026-04-26 13:15 | 46.01606 | 11.19297 | 22467 ft | 302 kts | 136° |
| 2026-04-26 13:15 | 46.00082 | 11.21373 | 23221 ft | 301 kts | 137° |
| 2026-04-26 13:15 | 45.98513 | 11.23390 | 23899 ft | 304 kts | 139° |
| 2026-04-26 13:15 | 45.96910 | 11.25405 | 24542 ft | 308 kts | 139° |
| 2026-04-26 13:16 | 45.95300 | 11.27466 | 25105 ft | 313 kts | 138° |
| 2026-04-26 13:16 | 45.93670 | 11.29571 | 25698 ft | 316 kts | 138° |
| 2026-04-26 13:16 | 45.92024 | 11.31677 | 26316 ft | 318 kts | 139° |
| 2026-04-26 13:16 | 45.90365 | 11.33793 | 26870 ft | 321 kts | 138° |
| 2026-04-26 13:17 | 45.87042 | 11.38049 | 27949 ft | 325 kts | 139° |
| 2026-04-26 13:17 | 45.85336 | 11.40222 | 28396 ft | 329 kts | 139° |
| 2026-04-26 13:18 | 45.81882 | 11.44614 | 29313 ft | 335 kts | 139° |
| 2026-04-26 13:18 | 45.80135 | 11.46845 | 29732 ft | 338 kts | 139° |
| 2026-04-26 13:18 | 45.76589 | 11.51355 | 30658 ft | 340 kts | 139° |
| 2026-04-26 13:19 | 45.74832 | 11.53585 | 31205 ft | 337 kts | 139° |
| 2026-04-26 13:19 | 45.73080 | 11.55808 | 31682 ft | 336 kts | 139° |
| 2026-04-26 13:19 | 45.71334 | 11.58021 | 32133 ft | 335 kts | 139° |
| 2026-04-26 13:19 | 45.69613 | 11.60201 | 32579 ft | 334 kts | 139° |
| 2026-04-26 13:20 | 45.67872 | 11.62403 | 33008 ft | 334 kts | 139° |
| 2026-04-26 13:20 | 45.66020 | 11.64383 | 33425 ft | 332 kts | 150° |
| 2026-04-26 13:20 | 45.63915 | 11.65715 | 33827 ft | 331 kts | 164° |
| 2026-04-26 13:20 | 45.61659 | 11.66320 | 34213 ft | 330 kts | 177° |
| 2026-04-26 13:21 | 45.59373 | 11.66167 | 34592 ft | 329 kts | 191° |
| 2026-04-26 13:21 | 45.57158 | 11.65371 | 34947 ft | 329 kts | 197° |
| 2026-04-26 13:21 | 45.54961 | 11.64466 | 35306 ft | 328 kts | 195° |
| 2026-04-26 13:21 | 45.52745 | 11.63678 | 35659 ft | 328 kts | 193° |
| 2026-04-26 13:22 | 45.50525 | 11.62938 | 36003 ft | 327 kts | 194° |
| 2026-04-26 13:22 | 45.48346 | 11.62168 | 36333 ft | 327 kts | 194° |
| 2026-04-26 13:22 | 45.46143 | 11.61365 | 36643 ft | 327 kts | 194° |
| 2026-04-26 13:22 | 45.43934 | 11.60576 | 36946 ft | 327 kts | 194° |
| 2026-04-26 13:23 | 45.41722 | 11.59799 | 37245 ft | 327 kts | 194° |
| 2026-04-26 13:23 | 45.39514 | 11.59017 | 37535 ft | 327 kts | 194° |
| 2026-04-26 13:23 | 45.37308 | 11.58234 | 37818 ft | 327 kts | 194° |
| 2026-04-26 13:23 | 45.35095 | 11.57450 | 38096 ft | 327 kts | 194° |
| 2026-04-26 13:24 | 45.32885 | 11.56669 | 38367 ft | 327 kts | 194° |
| 2026-04-26 13:24 | 45.30705 | 11.55899 | 38627 ft | 327 kts | 194° |
| 2026-04-26 13:24 | 45.28496 | 11.55118 | 38885 ft | 327 kts | 194° |
| 2026-04-26 13:24 | 45.26285 | 11.54337 | 39141 ft | 327 kts | 194° |
| 2026-04-26 13:25 | 45.24075 | 11.53558 | 39382 ft | 327 kts | 194° |
| 2026-04-26 13:25 | 45.21862 | 11.52779 | 39621 ft | 327 kts | 194° |
| 2026-04-26 13:25 | 45.19652 | 11.52001 | 39857 ft | 327 kts | 194° |
| 2026-04-26 13:25 | 45.17439 | 11.51222 | 40086 ft | 327 kts | 194° |
| 2026-04-26 13:26 | 45.15229 | 11.50445 | 40309 ft | 327 kts | 194° |
| 2026-04-26 13:26 | 45.13016 | 11.49669 | 40529 ft | 328 kts | 194° |
| 2026-04-26 13:26 | 45.10804 | 11.48893 | 40742 ft | 328 kts | 194° |
| 2026-04-26 13:26 | 45.08624 | 11.48128 | 40950 ft | 328 kts | 194° |
| 2026-04-26 13:27 | 45.06394 | 11.47346 | 40992 ft | 333 kts | 194° |
| 2026-04-26 13:27 | 45.01801 | 11.45739 | 40995 ft | 346 kts | 194° |
| 2026-04-26 13:28 | 44.97045 | 11.44078 | 40996 ft | 358 kts | 194° |
| 2026-04-26 13:28 | 44.92149 | 11.42371 | 40997 ft | 367 kts | 194° |
| 2026-04-26 13:29 | 44.87167 | 11.40636 | 40998 ft | 375 kts | 194° |
| 2026-04-26 13:29 | 44.82059 | 11.38862 | 40999 ft | 381 kts | 194° |
| 2026-04-26 13:30 | 44.76868 | 11.37061 | 41000 ft | 387 kts | 194° |
| 2026-04-26 13:30 | 44.71611 | 11.35241 | 41000 ft | 391 kts | 194° |
| 2026-04-26 13:31 | 44.66303 | 11.33407 | 41001 ft | 395 kts | 194° |
| 2026-04-26 13:31 | 44.60986 | 11.31574 | 41000 ft | 397 kts | 194° |
| 2026-04-26 13:32 | 44.55593 | 11.29746 | 41002 ft | 400 kts | 190° |
| 2026-04-26 13:32 | 44.52827 | 11.29372 | 41009 ft | 401 kts | 179° |
| 2026-04-26 13:32 | 44.50051 | 11.29723 | 41006 ft | 402 kts | 172° |
| 2026-04-26 13:33 | 44.44511 | 11.30914 | 41010 ft | 403 kts | 172° |
| 2026-04-26 13:33 | 44.38973 | 11.31962 | 41008 ft | 405 kts | 172° |
| 2026-04-26 13:34 | 44.33388 | 11.33083 | 41011 ft | 406 kts | 172° |
| 2026-04-26 13:34 | 44.27777 | 11.34171 | 41008 ft | 408 kts | 172° |
| 2026-04-26 13:35 | 44.22155 | 11.35278 | 41007 ft | 408 kts | 172° |
| 2026-04-26 13:35 | 44.16557 | 11.36369 | 41007 ft | 409 kts | 172° |
| 2026-04-26 13:36 | 44.10910 | 11.37472 | 41009 ft | 410 kts | 172° |
| 2026-04-26 13:36 | 44.05257 | 11.38570 | 41008 ft | 410 kts | 172° |
| 2026-04-26 13:37 | 43.99599 | 11.39674 | 41010 ft | 410 kts | 172° |
| 2026-04-26 13:37 | 43.93947 | 11.40770 | 41009 ft | 410 kts | 172° |
| 2026-04-26 13:38 | 43.88328 | 11.41859 | 41010 ft | 410 kts | 172° |
| 2026-04-26 13:38 | 43.82673 | 11.42952 | 41009 ft | 410 kts | 172° |
| 2026-04-26 13:39 | 43.77017 | 11.44044 | 41009 ft | 410 kts | 172° |
| 2026-04-26 13:39 | 43.71363 | 11.45132 | 41009 ft | 410 kts | 172° |
| 2026-04-26 13:40 | 43.65757 | 11.46210 | 41009 ft | 410 kts | 172° |
| 2026-04-26 13:40 | 43.60112 | 11.47293 | 41009 ft | 409 kts | 172° |
| 2026-04-26 13:41 | 43.54470 | 11.48373 | 41007 ft | 409 kts | 172° |
| 2026-04-26 13:41 | 43.48824 | 11.49452 | 41009 ft | 410 kts | 172° |
| 2026-04-26 13:42 | 43.43212 | 11.50523 | 41008 ft | 410 kts | 172° |
| 2026-04-26 13:42 | 43.37556 | 11.51599 | 41009 ft | 410 kts | 172° |
| 2026-04-26 13:43 | 43.31903 | 11.52675 | 41006 ft | 410 kts | 172° |
| 2026-04-26 13:43 | 43.26251 | 11.53746 | 41008 ft | 410 kts | 172° |
| 2026-04-26 13:44 | 43.20636 | 11.54810 | 41008 ft | 410 kts | 172° |
| 2026-04-26 13:44 | 43.14984 | 11.55878 | 41006 ft | 410 kts | 172° |
| 2026-04-26 13:45 | 43.09336 | 11.56944 | 41007 ft | 410 kts | 172° |
| 2026-04-26 13:45 | 43.03682 | 11.58007 | 41009 ft | 410 kts | 172° |
| 2026-04-26 13:46 | 42.98029 | 11.59071 | 41005 ft | 410 kts | 172° |
| 2026-04-26 13:46 | 42.92408 | 11.60124 | 41007 ft | 411 kts | 172° |
| 2026-04-26 13:47 | 42.86738 | 11.61186 | 41005 ft | 412 kts | 172° |
| 2026-04-26 13:47 | 42.81055 | 11.62248 | 41008 ft | 412 kts | 172° |
| 2026-04-26 13:48 | 42.75371 | 11.63306 | 41008 ft | 412 kts | 172° |
| 2026-04-26 13:48 | 42.69726 | 11.64360 | 41008 ft | 412 kts | 172° |
| 2026-04-26 13:49 | 42.64051 | 11.65414 | 41008 ft | 411 kts | 172° |
| 2026-04-26 13:49 | 42.58379 | 11.66467 | 41007 ft | 411 kts | 172° |
| 2026-04-26 13:50 | 42.52716 | 11.67515 | 41005 ft | 411 kts | 172° |
| 2026-04-26 13:50 | 42.47094 | 11.68555 | 41006 ft | 410 kts | 172° |
| 2026-04-26 13:51 | 42.41446 | 11.69597 | 41007 ft | 410 kts | 172° |
| 2026-04-26 13:51 | 42.35785 | 11.70639 | 41007 ft | 410 kts | 172° |
| 2026-04-26 13:52 | 42.30137 | 11.71678 | 41005 ft | 409 kts | 172° |
| 2026-04-26 13:52 | 42.24529 | 11.72726 | 41007 ft | 409 kts | 169° |
| 2026-04-26 13:53 | 42.19225 | 11.75384 | 41012 ft | 409 kts | 148° |
| 2026-04-26 13:53 | 42.14633 | 11.79915 | 41008 ft | 409 kts | 143° |
| 2026-04-26 13:54 | 42.09978 | 11.84333 | 41006 ft | 409 kts | 146° |
| 2026-04-26 13:54 | 42.05340 | 11.88792 | 41011 ft | 410 kts | 144° |
| 2026-04-26 13:55 | 41.99152 | 11.94699 | 41009 ft | 410 kts | 145° |
| 2026-04-26 13:56 | 41.91435 | 12.02072 | 41007 ft | 410 kts | 145° |
| 2026-04-26 13:56 | 41.86786 | 12.06492 | 41010 ft | 409 kts | 144° |
| 2026-04-26 13:57 | 41.82142 | 12.10915 | 41009 ft | 409 kts | 145° |
| 2026-04-26 13:57 | 41.77518 | 12.15288 | 41009 ft | 409 kts | 145° |
| 2026-04-26 13:58 | 41.72867 | 12.19692 | 41009 ft | 409 kts | 145° |
| 2026-04-26 13:58 | 41.68211 | 12.24089 | 41009 ft | 409 kts | 145° |
| 2026-04-26 13:59 | 41.63555 | 12.28480 | 41009 ft | 410 kts | 145° |
| 2026-04-26 13:59 | 41.58931 | 12.32834 | 41009 ft | 410 kts | 145° |
| 2026-04-26 14:00 | 41.49607 | 12.41582 | 41006 ft | 410 kts | 145° |
| 2026-04-26 14:01 | 41.44943 | 12.45949 | 41009 ft | 410 kts | 145° |
| 2026-04-26 14:01 | 41.40279 | 12.50308 | 41009 ft | 410 kts | 145° |
| 2026-04-26 14:02 | 41.35646 | 12.54632 | 41009 ft | 410 kts | 145° |
| 2026-04-26 14:02 | 41.30976 | 12.58979 | 41006 ft | 410 kts | 145° |
| 2026-04-26 14:03 | 41.26311 | 12.63325 | 41009 ft | 410 kts | 145° |
| 2026-04-26 14:03 | 41.21634 | 12.67658 | 41009 ft | 410 kts | 145° |
| 2026-04-26 14:04 | 41.16960 | 12.71987 | 41006 ft | 410 kts | 145° |
| 2026-04-26 14:04 | 41.12315 | 12.76280 | 41004 ft | 410 kts | 145° |
| 2026-04-26 14:05 | 41.07637 | 12.80598 | 41008 ft | 410 kts | 145° |
| 2026-04-26 14:05 | 41.02957 | 12.84911 | 41008 ft | 410 kts | 145° |
| 2026-04-26 14:06 | 40.98273 | 12.89218 | 41008 ft | 410 kts | 145° |
| 2026-04-26 14:06 | 40.93600 | 12.93440 | 41007 ft | 409 kts | 150° |
| 2026-04-26 14:06 | 40.91030 | 12.95053 | 41007 ft | 409 kts | 161° |
| 2026-04-26 14:07 | 40.88285 | 12.96003 | 41009 ft | 409 kts | 172° |
| 2026-04-26 14:07 | 40.82615 | 12.96385 | 41008 ft | 408 kts | 179° |
| 2026-04-26 14:08 | 40.76944 | 12.96861 | 41010 ft | 408 kts | 175° |
| 2026-04-26 14:08 | 40.71310 | 12.97309 | 41006 ft | 408 kts | 177° |
| 2026-04-26 14:09 | 40.65635 | 12.97749 | 41010 ft | 409 kts | 176° |
| 2026-04-26 14:09 | 40.59961 | 12.98204 | 41010 ft | 409 kts | 177° |
| 2026-04-26 14:10 | 40.54283 | 12.98647 | 41011 ft | 409 kts | 176° |
| 2026-04-26 14:10 | 40.48643 | 12.99093 | 41011 ft | 409 kts | 177° |
| 2026-04-26 14:11 | 40.40123 | 12.99761 | 41011 ft | 409 kts | 177° |
| 2026-04-26 14:11 | 40.34442 | 13.00206 | 41009 ft | 409 kts | 177° |
| 2026-04-26 14:12 | 40.28762 | 13.00650 | 41010 ft | 409 kts | 177° |
| 2026-04-26 14:12 | 40.23120 | 13.01090 | 41010 ft | 409 kts | 177° |
| 2026-04-26 14:13 | 40.14595 | 13.01755 | 41010 ft | 409 kts | 177° |
| 2026-04-26 14:14 | 40.08914 | 13.02196 | 41009 ft | 409 kts | 177° |
| 2026-04-26 14:14 | 40.03232 | 13.02637 | 41010 ft | 409 kts | 177° |
| 2026-04-26 14:15 | 39.97585 | 13.03075 | 41009 ft | 409 kts | 177° |
| 2026-04-26 14:15 | 39.94767 | 13.03293 | 40699 ft | 401 kts | 177° |
| 2026-04-26 14:15 | 39.91988 | 13.03508 | 39916 ft | 401 kts | 177° |
| 2026-04-26 14:15 | 39.89204 | 13.03722 | 39137 ft | 401 kts | 177° |
| 2026-04-26 14:16 | 39.86415 | 13.03938 | 38362 ft | 401 kts | 177° |
| 2026-04-26 14:16 | 39.83633 | 13.04153 | 37585 ft | 401 kts | 177° |
| 2026-04-26 14:16 | 39.80847 | 13.04367 | 36810 ft | 401 kts | 177° |
| 2026-04-26 14:16 | 39.78061 | 13.04576 | 36055 ft | 401 kts | 177° |
| 2026-04-26 14:17 | 39.75275 | 13.04789 | 35288 ft | 402 kts | 177° |
| 2026-04-26 14:17 | 39.72480 | 13.05008 | 34525 ft | 403 kts | 176° |
| 2026-04-26 14:17 | 39.69676 | 13.05227 | 33766 ft | 404 kts | 177° |
| 2026-04-26 14:17 | 39.66901 | 13.05439 | 33018 ft | 406 kts | 177° |
| 2026-04-26 14:18 | 39.64076 | 13.05654 | 32261 ft | 407 kts | 177° |
| 2026-04-26 14:18 | 39.61243 | 13.05872 | 31504 ft | 408 kts | 177° |
| 2026-04-26 14:18 | 39.58402 | 13.06091 | 30747 ft | 410 kts | 177° |
| 2026-04-26 14:18 | 39.55551 | 13.06309 | 29992 ft | 411 kts | 177° |
| 2026-04-26 14:19 | 39.52689 | 13.06527 | 29234 ft | 413 kts | 177° |
| 2026-04-26 14:19 | 39.49821 | 13.06746 | 28476 ft | 414 kts | 177° |
| 2026-04-26 14:19 | 39.46954 | 13.06966 | 27757 ft | 410 kts | 177° |
| 2026-04-26 14:19 | 39.44125 | 13.07181 | 27011 ft | 405 kts | 177° |
| 2026-04-26 14:20 | 39.41365 | 13.07391 | 26274 ft | 400 kts | 177° |
| 2026-04-26 14:20 | 39.38604 | 13.07602 | 25528 ft | 395 kts | 177° |
| 2026-04-26 14:20 | 39.35873 | 13.07810 | 24781 ft | 391 kts | 177° |
| 2026-04-26 14:20 | 39.33174 | 13.08015 | 24034 ft | 386 kts | 177° |
| 2026-04-26 14:21 | 39.30508 | 13.08217 | 23287 ft | 382 kts | 177° |
| 2026-04-26 14:21 | 39.27873 | 13.08417 | 22538 ft | 377 kts | 177° |
| 2026-04-26 14:21 | 39.25266 | 13.08615 | 21791 ft | 373 kts | 177° |
| 2026-04-26 14:21 | 39.22691 | 13.08810 | 21044 ft | 369 kts | 177° |
| 2026-04-26 14:22 | 39.20146 | 13.09003 | 20303 ft | 364 kts | 177° |
| 2026-04-26 14:22 | 39.17666 | 13.09191 | 20234 ft | 362 kts | 177° |
| 2026-04-26 14:22 | 39.15143 | 13.09381 | 20359 ft | 364 kts | 177° |
| 2026-04-26 14:22 | 39.12614 | 13.09572 | 20404 ft | 364 kts | 177° |
| 2026-04-26 14:23 | 39.10083 | 13.09763 | 20404 ft | 364 kts | 177° |
| 2026-04-26 14:23 | 39.07551 | 13.09954 | 20405 ft | 364 kts | 177° |
| 2026-04-26 14:23 | 39.05019 | 13.10145 | 20405 ft | 364 kts | 177° |
| 2026-04-26 14:23 | 39.02492 | 13.10336 | 20405 ft | 364 kts | 177° |
| 2026-04-26 14:24 | 38.99961 | 13.10526 | 20405 ft | 364 kts | 177° |
| 2026-04-26 14:24 | 38.97431 | 13.10716 | 20406 ft | 364 kts | 177° |
| 2026-04-26 14:24 | 38.94934 | 13.10903 | 20406 ft | 364 kts | 177° |
| 2026-04-26 14:24 | 38.92402 | 13.11095 | 20406 ft | 364 kts | 177° |
| 2026-04-26 14:25 | 38.89870 | 13.11279 | 20348 ft | 365 kts | 178° |
| 2026-04-26 14:25 | 38.87355 | 13.11035 | 19922 ft | 362 kts | 191° |
| 2026-04-26 14:25 | 38.84957 | 13.10127 | 19446 ft | 358 kts | 203° |
| 2026-04-26 14:25 | 38.82772 | 13.08627 | 18967 ft | 355 kts | 214° |
| 2026-04-26 14:26 | 38.80791 | 13.06753 | 18501 ft | 353 kts | 217° |
| 2026-04-26 14:26 | 38.78823 | 13.04888 | 18029 ft | 350 kts | 216° |
| 2026-04-26 14:26 | 38.76863 | 13.03052 | 17567 ft | 348 kts | 216° |
| 2026-04-26 14:26 | 38.74945 | 13.01245 | 17112 ft | 345 kts | 217° |
| 2026-04-26 14:27 | 38.73018 | 12.99422 | 16653 ft | 343 kts | 217° |
| 2026-04-26 14:27 | 38.71102 | 12.97618 | 16199 ft | 341 kts | 216° |
| 2026-04-26 14:27 | 38.69199 | 12.95832 | 15747 ft | 338 kts | 217° |
| 2026-04-26 14:27 | 38.67309 | 12.94049 | 15298 ft | 336 kts | 217° |
| 2026-04-26 14:28 | 38.65432 | 12.92281 | 14852 ft | 334 kts | 217° |
| 2026-04-26 14:28 | 38.63566 | 12.90527 | 14408 ft | 332 kts | 217° |
| 2026-04-26 14:28 | 38.61715 | 12.88788 | 13969 ft | 329 kts | 217° |
| 2026-04-26 14:28 | 38.59873 | 12.87058 | 13533 ft | 327 kts | 217° |
| 2026-04-26 14:29 | 38.58044 | 12.85342 | 13098 ft | 325 kts | 217° |
| 2026-04-26 14:29 | 38.56251 | 12.83661 | 12670 ft | 323 kts | 216° |
| 2026-04-26 14:29 | 38.54445 | 12.81968 | 12244 ft | 321 kts | 217° |
| 2026-04-26 14:29 | 38.52664 | 12.80301 | 11822 ft | 309 kts | 216° |
| 2026-04-26 14:30 | 38.50981 | 12.78727 | 11428 ft | 291 kts | 217° |
| 2026-04-26 14:30 | 38.49376 | 12.77225 | 11045 ft | 287 kts | 217° |
| 2026-04-26 14:30 | 38.47743 | 12.75695 | 10653 ft | 292 kts | 217° |
| 2026-04-26 14:30 | 38.46115 | 12.74173 | 10271 ft | 289 kts | 216° |
| 2026-04-26 14:31 | 38.44384 | 12.72911 | 9889 ft | 286 kts | 200° |
| 2026-04-26 14:31 | 38.42510 | 12.72418 | 9523 ft | 273 kts | 183° |
| 2026-04-26 14:31 | 38.40653 | 12.72632 | 9170 ft | 265 kts | 166° |
| 2026-04-26 14:31 | 38.38954 | 12.73472 | 8822 ft | 261 kts | 152° |
| 2026-04-26 14:32 | 38.37508 | 12.74863 | 8479 ft | 262 kts | 134° |
| 2026-04-26 14:32 | 38.36436 | 12.76720 | 8135 ft | 261 kts | 117° |
| 2026-04-26 14:32 | 38.35829 | 12.78871 | 7981 ft | 256 kts | 104° |
| 2026-04-26 14:32 | 38.35100 | 12.80873 | 7648 ft | 246 kts | 131° |
| 2026-04-26 14:33 | 38.33734 | 12.82065 | 7364 ft | 237 kts | 163° |
| 2026-04-26 14:33 | 38.32150 | 12.82166 | 7101 ft | 231 kts | 191° |
| 2026-04-26 14:33 | 38.30577 | 12.81726 | 6811 ft | 232 kts | 191° |
| 2026-04-26 14:33 | 38.28977 | 12.81542 | 6516 ft | 231 kts | 179° |
| 2026-04-26 14:34 | 38.27374 | 12.81680 | 6213 ft | 230 kts | 175° |
| 2026-04-26 14:34 | 38.25781 | 12.81838 | 5913 ft | 229 kts | 177° |
| 2026-04-26 14:34 | 38.24220 | 12.82165 | 5616 ft | 228 kts | 160° |
| 2026-04-26 14:34 | 38.22763 | 12.82967 | 5313 ft | 228 kts | 157° |
| 2026-04-26 14:35 | 38.21304 | 12.83751 | 4997 ft | 227 kts | 158° |
| 2026-04-26 14:35 | 38.19850 | 12.84528 | 4609 ft | 225 kts | 157° |
| 2026-04-26 14:35 | 38.18431 | 12.85296 | 4300 ft | 224 kts | 157° |
| 2026-04-26 14:35 | 38.17001 | 12.86072 | 4001 ft | 222 kts | 157° |
| 2026-04-26 14:36 | 38.15599 | 12.86830 | 3720 ft | 216 kts | 157° |
| 2026-04-26 14:36 | 38.14248 | 12.87608 | 3452 ft | 211 kts | 149° |
| 2026-04-26 14:36 | 38.13161 | 12.88814 | 3181 ft | 207 kts | 129° |
| 2026-04-26 14:36 | 38.12306 | 12.90258 | 2910 ft | 203 kts | 118° |
| 2026-04-26 14:37 | 38.12044 | 12.91973 | 2664 ft | 198 kts | 86° |
| 2026-04-26 14:37 | 38.12270 | 12.93664 | 2413 ft | 192 kts | 72° |
| 2026-04-26 14:37 | 38.12700 | 12.95198 | 2376 ft | 176 kts | 70° |
| 2026-04-26 14:37 | 38.13097 | 12.96596 | 2378 ft | 160 kts | 70° |
| 2026-04-26 14:38 | 38.13446 | 12.97780 | 2344 ft | 133 kts | 67° |
| 2026-04-26 14:38 | 38.13815 | 12.98802 | 2166 ft | 123 kts | 64° |
| 2026-04-26 14:38 | 38.14189 | 12.99776 | 1898 ft | 124 kts | 63° |
| 2026-04-26 14:38 | 38.14441 | 13.00439 | 1672 ft | 128 kts | 64° |
| 2026-04-26 14:39 | 38.14984 | 13.01877 | 1158 ft | 140 kts | 63° |
| 2026-04-26 14:39 | 38.15404 | 13.03003 | 898 ft | 140 kts | 65° |
| 2026-04-26 14:39 | 38.15801 | 13.04080 | 791 ft | 129 kts | 64° |
| 2026-04-26 14:39 | 38.16180 | 13.05073 | 703 ft | 122 kts | 64° |
| 2026-04-26 14:40 | 38.16526 | 13.06043 | 594 ft | 122 kts | 66° |
| 2026-04-26 14:40 | 38.16861 | 13.07017 | 451 ft | 119 kts | 66° |
| 2026-04-26 14:40 | 38.17192 | 13.07974 | 239 ft | 119 kts | 66° |
| 2026-04-26 14:40 | 38.17515 | 13.08934 | 68 ft | 117 kts | 65° |
| 2026-04-26 14:41 | 38.17808 | 13.09780 | 48 ft | 93 kts | 65° |
| 2026-04-26 14:41 | 38.17968 | 13.10250 | 48 ft | 13 kts | 65° |
| 2026-04-26 14:41 | 38.18013 | 13.10253 | 48 ft | 8 kts | 294° |
| 2026-04-26 14:41 | 38.18024 | 13.10153 | 48 ft | 0 kts | 277° |